Time;durP1;ratioP1;P1;durP2;ratioP2;P2;SDS_P1;SDS_P2;PMS_P1;PMS_P2;Temp;Humidity;BMP_temperature;BMP_pressure;BME280_temperature;BME280_humidity;BME280_pressure;Samples;Min_cycle;Max_cycle;Signal;HPM_P1;HPM_P2
2022/05/24 00:00:10;;;;;;;2.83;2.30;;;;;;;;;;5022217;28;20190;-73
2022/05/24 00:02:39;;;;;;;2.73;2.33;;;;;;;;;;5025891;28;20540;-73
2022/05/24 00:05:07;;;;;;;3.00;2.70;;;;;;;;;;5024304;28;20179;-73
2022/05/24 00:07:33;;;;;;;2.50;2.30;;;;;;;;;;5023939;28;20186;-73
2022/05/24 00:10:00;;;;;;;3.10;2.40;;;;;;;;;;5021106;28;20210;-73
2022/05/24 00:12:27;;;;;;;3.10;2.83;;;;;;;;;;5016792;28;20185;-73
2022/05/24 00:17:38;;;;;;;3.03;2.63;;;;;;;;;;5020661;28;20183;-73
2022/05/24 00:20:05;;;;;;;3.00;2.70;;;;;;;;;;5017217;28;20202;-73
2022/05/24 00:22:32;;;;;;;4.23;2.60;;;;;;;;;;5023108;28;20318;-73
2022/05/24 00:25:01;;;;;;;2.70;2.50;;;;;;;;;;5025604;28;20185;-73
2022/05/24 00:27:28;;;;;;;3.17;2.67;;;;;;;;;;5019905;28;20237;-73
2022/05/24 00:29:54;;;;;;;3.00;2.60;;;;;;;;;;5021229;28;20211;-73
2022/05/24 00:32:21;;;;;;;2.83;2.57;;;;;;;;;;5021446;28;20202;-74
2022/05/24 00:34:47;;;;;;;2.30;2.10;;;;;;;;;;5029446;28;20825;-73
2022/05/24 00:37:13;;;;;;;2.90;2.70;;;;;;;;;;5029559;28;20179;-73
2022/05/24 00:39:39;;;;;;;2.60;2.40;;;;;;;;;;5027345;28;20322;-74
2022/05/24 00:42:09;;;;;;;3.40;2.60;;;;;;;;;;5026129;28;20189;-73
2022/05/24 00:44:39;;;;;;;3.50;2.80;;;;;;;;;;5019938;28;20189;-74
2022/05/24 00:47:11;;;;;;;2.97;2.70;;;;;;;;;;5021959;28;20214;-73
2022/05/24 00:50:00;;;;;;;3.30;2.97;;;;;;;;;;5020994;28;20282;-73
2022/05/24 00:52:29;;;;;;;3.10;2.80;;;;;;;;;;5017075;28;20235;-73
2022/05/24 00:54:56;;;;;;;3.10;2.87;;;;;;;;;;5028350;28;20202;-73
2022/05/24 00:57:29;;;;;;;3.67;2.90;;;;;;;;;;5022196;28;20191;-73
2022/05/24 01:00:02;;;;;;;3.53;2.80;;;;;;;;;;5026365;28;20198;-74
2022/05/24 01:02:29;;;;;;;3.20;2.90;;;;;;;;;;5027355;28;20744;-73
2022/05/24 01:04:57;;;;;;;4.50;2.70;;;;;;;;;;5022540;28;20686;-74
2022/05/24 01:07:24;;;;;;;5.60;2.50;;;;;;;;;;5025725;28;20210;-73
2022/05/24 01:09:53;;;;;;;6.27;2.70;;;;;;;;;;5035350;28;20249;-73
2022/05/24 01:12:23;;;;;;;2.43;2.23;;;;;;;;;;5022929;28;20221;-73
2022/05/24 01:14:52;;;;;;;2.80;2.60;;;;;;;;;;5025687;28;20186;-73
2022/05/24 01:17:18;;;;;;;3.37;2.40;;;;;;;;;;5026710;28;20182;-73
2022/05/24 01:19:46;;;;;;;2.43;2.23;;;;;;;;;;5031272;28;20590;-73
2022/05/24 01:22:26;;;;;;;4.20;2.37;;;;;;;;;;5025550;28;20170;-73
2022/05/24 01:25:10;;;;;;;2.70;2.50;;;;;;;;;;5033321;28;20179;-73
2022/05/24 01:27:37;;;;;;;3.87;2.90;;;;;;;;;;5019465;28;20183;-73
2022/05/24 01:30:07;;;;;;;2.93;2.67;;;;;;;;;;5023901;28;20218;-73
2022/05/24 01:38:08;;;;;;;2.50;2.30;;;;;;;;;;5023884;28;20677;-73
2022/05/24 01:40:37;;;;;;;2.90;2.30;;;;;;;;;;5026635;28;20245;-73
2022/05/24 01:43:03;;;;;;;2.57;2.37;;;;;;;;;;5027012;28;20880;-73
2022/05/24 01:45:36;;;;;;;3.70;2.30;;;;;;;;;;5026480;28;20193;-73
2022/05/24 01:48:09;;;;;;;4.80;2.50;;;;;;;;;;5027033;28;20198;-73
2022/05/24 01:50:36;;;;;;;2.70;2.40;;;;;;;;;;5024088;28;20281;-73
2022/05/24 01:53:05;;;;;;;2.83;2.47;;;;;;;;;;5025348;28;20745;-73
2022/05/24 01:55:34;;;;;;;3.00;2.70;;;;;;;;;;5025722;28;20191;-73
2022/05/24 01:58:03;;;;;;;3.90;3.20;;;;;;;;;;5018975;28;20194;-73
2022/05/24 02:00:29;;;;;;;4.37;3.70;;;;;;;;;;5031424;28;20205;-73
2022/05/24 02:02:56;;;;;;;4.17;3.10;;;;;;;;;;5028473;28;20186;-73
2022/05/24 02:05:31;;;;;;;3.50;3.03;;;;;;;;;;5021303;28;20284;-73
2022/05/24 02:07:57;;;;;;;3.43;3.00;;;;;;;;;;5023811;28;20182;-73
2022/05/24 02:10:23;;;;;;;3.80;2.60;;;;;;;;;;5032734;28;20203;-72
2022/05/24 02:12:52;;;;;;;5.13;3.53;;;;;;;;;;5027735;28;20273;-73
2022/05/24 02:15:25;;;;;;;3.20;2.90;;;;;;;;;;5032141;28;20256;-73
2022/05/24 02:18:09;;;;;;;4.43;3.30;;;;;;;;;;5027898;28;20187;-73
2022/05/24 02:20:37;;;;;;;3.97;3.67;;;;;;;;;;5020065;28;20199;-73
2022/05/24 02:23:07;;;;;;;4.13;3.73;;;;;;;;;;5029932;28;20174;-73
2022/05/24 02:25:41;;;;;;;5.60;3.50;;;;;;;;;;5024261;28;20186;-73
2022/05/24 02:28:09;;;;;;;5.83;4.00;;;;;;;;;;5027972;28;20191;-73
2022/05/24 02:30:37;;;;;;;5.20;3.90;;;;;;;;;;5030430;28;20221;-73
2022/05/24 02:33:03;;;;;;;4.03;3.63;;;;;;;;;;5028759;28;21216;-73
2022/05/24 02:35:32;;;;;;;4.10;3.70;;;;;;;;;;5023275;28;20682;-73
2022/05/24 02:37:58;;;;;;;5.03;4.00;;;;;;;;;;5018687;28;20175;-73
2022/05/24 02:43:09;;;;;;;4.10;3.50;;;;;;;;;;5026501;28;20202;-73
2022/05/24 02:45:35;;;;;;;4.67;4.17;;;;;;;;;;5015310;28;20186;-73
2022/05/24 02:48:01;;;;;;;3.93;3.57;;;;;;;;;;5028667;28;20186;-73
2022/05/24 02:50:28;;;;;;;5.00;3.90;;;;;;;;;;5033630;28;20576;-73
2022/05/24 02:52:54;;;;;;;4.30;3.90;;;;;;;;;;5030221;28;20269;-73
2022/05/24 02:55:23;;;;;;;4.53;3.70;;;;;;;;;;5026652;28;20206;-73
2022/05/24 02:57:49;;;;;;;4.27;3.87;;;;;;;;;;5027042;28;20178;-73
2022/05/24 03:00:22;;;;;;;4.63;4.23;;;;;;;;;;5023697;28;20658;-73
2022/05/24 03:02:49;;;;;;;6.03;4.40;;;;;;;;;;5027645;28;20233;-73
2022/05/24 03:05:22;;;;;;;5.70;3.90;;;;;;;;;;5020873;28;20190;-74
2022/05/24 03:10:34;;;;;;;4.67;3.80;;;;;;;;;;5024271;28;20205;-73
2022/05/24 03:15:46;;;;;;;6.10;4.17;;;;;;;;;;5029758;28;20237;-73
2022/05/24 03:18:13;;;;;;;5.03;4.50;;;;;;;;;;5019867;28;20698;-74
2022/05/24 03:20:39;;;;;;;4.43;4.00;;;;;;;;;;5022477;28;20225;-73
2022/05/24 03:23:06;;;;;;;6.07;4.97;;;;;;;;;;5027428;28;20673;-73
2022/05/24 03:25:32;;;;;;;7.70;4.83;;;;;;;;;;5024608;28;20194;-73
2022/05/24 03:27:59;;;;;;;5.77;4.77;;;;;;;;;;5024614;28;20187;-73
2022/05/24 03:30:26;;;;;;;5.20;4.70;;;;;;;;;;5027199;28;20205;-73
2022/05/24 03:32:52;;;;;;;4.87;4.47;;;;;;;;;;5033186;28;20195;-73
2022/05/24 03:35:19;;;;;;;6.37;5.10;;;;;;;;;;5016493;28;20264;-73
2022/05/24 03:37:45;;;;;;;5.30;4.90;;;;;;;;;;5014879;28;20266;-73
2022/05/24 03:40:11;;;;;;;5.20;4.70;;;;;;;;;;5024227;28;20204;-74
2022/05/24 03:42:38;;;;;;;5.10;4.70;;;;;;;;;;5023927;28;20174;-73
2022/05/24 03:45:07;;;;;;;5.87;5.37;;;;;;;;;;5022581;28;20179;-73
2022/05/24 03:47:33;;;;;;;5.87;5.30;;;;;;;;;;5023690;28;20182;-73
2022/05/24 03:49:59;;;;;;;6.33;5.73;;;;;;;;;;5025701;28;20729;-73
2022/05/24 03:52:25;;;;;;;6.07;5.47;;;;;;;;;;5026480;28;20182;-72
2022/05/24 03:54:51;;;;;;;6.50;5.90;;;;;;;;;;5022480;28;20245;-73
2022/05/24 04:00:04;;;;;;;7.00;6.37;;;;;;;;;;5022397;28;20203;-73
2022/05/24 04:02:38;;;;;;;6.57;5.97;;;;;;;;;;5034882;28;20673;-73
2022/05/24 04:05:05;;;;;;;6.13;5.63;;;;;;;;;;5025133;28;20194;-73
2022/05/24 04:07:31;;;;;;;6.03;5.13;;;;;;;;;;5024281;28;20201;-73
2022/05/24 04:09:57;;;;;;;6.37;5.53;;;;;;;;;;5028149;28;20206;-73
2022/05/24 04:12:24;;;;;;;6.93;5.77;;;;;;;;;;5017516;28;20233;-73
2022/05/24 04:14:50;;;;;;;6.23;5.70;;;;;;;;;;5025773;28;20669;-74
2022/05/24 04:17:17;;;;;;;6.03;5.40;;;;;;;;;;5008674;28;20233;-73
2022/05/24 04:19:43;;;;;;;5.80;5.20;;;;;;;;;;5026432;28;20202;-73
2022/05/24 04:22:09;;;;;;;7.43;5.37;;;;;;;;;;5031335;28;20236;-73
2022/05/24 04:24:35;;;;;;;6.47;5.37;;;;;;;;;;5033741;28;20186;-73
2022/05/24 04:27:01;;;;;;;5.50;4.80;;;;;;;;;;5025205;28;20187;-73
2022/05/24 04:29:27;;;;;;;7.47;4.63;;;;;;;;;;5025831;28;20229;-73
2022/05/24 04:31:53;;;;;;;5.47;4.60;;;;;;;;;;5032309;28;20187;-73
2022/05/24 04:34:20;;;;;;;5.27;4.47;;;;;;;;;;5023378;28;20183;-73
2022/05/24 04:36:46;;;;;;;5.10;4.60;;;;;;;;;;5023061;28;20213;-73
2022/05/24 04:39:13;;;;;;;5.73;4.50;;;;;;;;;;5026676;28;20307;-73
2022/05/24 04:44:25;;;;;;;5.00;4.20;;;;;;;;;;5020974;28;20178;-73
2022/05/24 04:47:10;;;;;;;4.43;4.03;;;;;;;;;;5028174;28;20183;-73
2022/05/24 04:49:41;;;;;;;5.20;4.27;;;;;;;;;;5026780;28;20202;-73
2022/05/24 04:52:12;;;;;;;4.00;3.60;;;;;;;;;;5020275;28;20190;-73
2022/05/24 04:54:39;;;;;;;4.77;3.70;;;;;;;;;;5027269;28;20308;-73
2022/05/24 04:57:06;;;;;;;5.37;3.60;;;;;;;;;;5022831;28;20333;-73
2022/05/24 04:59:35;;;;;;;3.43;3.13;;;;;;;;;;5018452;28;20195;-73
2022/05/24 05:02:01;;;;;;;5.43;3.30;;;;;;;;;;5014200;28;20206;-73
2022/05/24 05:04:28;;;;;;;3.43;3.07;;;;;;;;;;5017456;28;20652;-76
2022/05/24 05:06:54;;;;;;;3.67;3.00;;;;;;;;;;5017470;28;20559;-75
2022/05/24 05:09:21;;;;;;;3.10;2.83;;;;;;;;;;5028519;28;20206;-78
2022/05/24 05:11:47;;;;;;;3.30;2.90;;;;;;;;;;5022779;28;20183;-78
2022/05/24 05:14:13;;;;;;;2.93;2.60;;;;;;;;;;5023012;28;20190;-76
2022/05/24 05:16:40;;;;;;;3.10;2.70;;;;;;;;;;5018969;28;20203;-76
2022/05/24 05:19:07;;;;;;;4.00;2.60;;;;;;;;;;5029652;28;20202;-75
2022/05/24 05:21:34;;;;;;;3.53;2.50;;;;;;;;;;5029806;28;20182;-78
2022/05/24 05:24:01;;;;;;;3.20;2.50;;;;;;;;;;5026795;28;20174;-75
2022/05/24 05:26:27;;;;;;;2.67;2.33;;;;;;;;;;5026808;28;20213;-79
2022/05/24 05:28:53;;;;;;;4.20;2.73;;;;;;;;;;5029575;28;20202;-77
2022/05/24 05:31:23;;;;;;;2.40;2.20;;;;;;;;;;5030375;28;20201;-75
2022/05/24 05:33:50;;;;;;;3.57;2.23;;;;;;;;;;5027115;28;20186;-75
2022/05/24 05:36:16;;;;;;;3.07;2.23;;;;;;;;;;5029703;28;20286;-74
2022/05/24 05:38:46;;;;;;;3.53;2.20;;;;;;;;;;5025595;28;20209;-75
2022/05/24 05:41:20;;;;;;;4.33;1.93;;;;;;;;;;5020293;28;20659;-73
2022/05/24 05:43:46;;;;;;;3.97;2.00;;;;;;;;;;5029041;28;20248;-78
2022/05/24 05:46:13;;;;;;;3.57;2.00;;;;;;;;;;5031706;28;20203;-77
2022/05/24 05:48:40;;;;;;;3.00;2.10;;;;;;;;;;5031325;28;20202;-82
2022/05/24 05:51:07;;;;;;;2.70;2.13;;;;;;;;;;5031620;28;20198;-78
2022/05/24 05:53:33;;;;;;;2.37;1.90;;;;;;;;;;5027406;28;20201;-73
2022/05/24 05:55:59;;;;;;;2.47;1.97;;;;;;;;;;5030041;28;20198;-73
2022/05/24 05:58:26;;;;;;;3.53;2.10;;;;;;;;;;5029642;28;20171;-73
2022/05/24 06:00:52;;;;;;;3.00;1.97;;;;;;;;;;5027880;28;20198;-73
2022/05/24 06:03:20;;;;;;;2.73;1.30;;;;;;;;;;5028089;28;20609;-74
2022/05/24 06:05:48;;;;;;;1.63;1.50;;;;;;;;;;5028960;28;20223;-74
2022/05/24 06:08:15;;;;;;;2.27;1.60;;;;;;;;;;5028874;28;20526;-74
2022/05/24 06:10:41;;;;;;;2.77;1.60;;;;;;;;;;5026739;28;20182;-74
2022/05/24 06:13:07;;;;;;;2.70;1.60;;;;;;;;;;5027860;28;20190;-73
2022/05/24 06:15:34;;;;;;;3.43;1.30;;;;;;;;;;5030163;28;20705;-73
2022/05/24 06:18:00;;;;;;;2.67;1.70;;;;;;;;;;5029653;28;20190;-73
2022/05/24 06:20:28;;;;;;;1.50;1.20;;;;;;;;;;5029541;28;20198;-73
2022/05/24 06:22:55;;;;;;;1.83;1.30;;;;;;;;;;5027102;28;20545;-74
2022/05/24 06:25:22;;;;;;;2.37;1.30;;;;;;;;;;5028835;28;20265;-73
2022/05/24 06:27:52;;;;;;;1.47;1.20;;;;;;;;;;5028753;28;20212;-73
2022/05/24 06:30:20;;;;;;;2.07;1.20;;;;;;;;;;5028261;28;20225;-73
2022/05/24 06:32:50;;;;;;;1.33;1.10;;;;;;;;;;5028651;28;20194;-73
2022/05/24 06:35:16;;;;;;;1.13;1.03;;;;;;;;;;5025670;28;20233;-73
2022/05/24 06:37:43;;;;;;;2.10;1.00;;;;;;;;;;5026672;28;20183;-72
2022/05/24 06:40:10;;;;;;;3.23;0.87;;;;;;;;;;5028827;28;20225;-73
2022/05/24 06:42:36;;;;;;;2.10;0.80;;;;;;;;;;5027508;28;20594;-73
2022/05/24 06:45:03;;;;;;;1.33;0.90;;;;;;;;;;5026279;28;20195;-75
2022/05/24 06:47:29;;;;;;;2.87;0.80;;;;;;;;;;5033933;28;20921;-73
2022/05/24 06:49:56;;;;;;;1.00;0.90;;;;;;;;;;5022438;28;20240;-72
2022/05/24 06:52:22;;;;;;;1.10;1.00;;;;;;;;;;5016761;28;20185;-72
2022/05/24 06:54:49;;;;;;;1.80;0.90;;;;;;;;;;5014847;28;20209;-72
2022/05/24 06:57:15;;;;;;;2.90;1.00;;;;;;;;;;5021813;28;21879;-72
2022/05/24 07:02:34;;;;;;;0.73;0.73;;;;;;;;;;5011831;28;20191;-73
2022/05/24 07:05:00;;;;;;;0.90;0.90;;;;;;;;;;5022744;28;20179;-73
2022/05/24 07:07:28;;;;;;;1.23;1.00;;;;;;;;;;5006249;28;20198;-75
2022/05/24 07:09:54;;;;;;;1.57;0.97;;;;;;;;;;5019933;28;20653;-74
2022/05/24 07:12:21;;;;;;;0.90;0.90;;;;;;;;;;5023753;28;20324;-73
2022/05/24 07:14:48;;;;;;;5.30;1.10;;;;;;;;;;5025872;28;20185;-73
2022/05/24 07:17:15;;;;;;;0.80;0.80;;;;;;;;;;5026512;28;20224;-73
2022/05/24 07:19:41;;;;;;;3.70;1.00;;;;;;;;;;5025526;28;20214;-73
2022/05/24 07:22:07;;;;;;;2.40;0.90;;;;;;;;;;5026356;28;20183;-74
2022/05/24 07:24:34;;;;;;;2.87;1.03;;;;;;;;;;5026678;28;20200;-74
2022/05/24 07:27:01;;;;;;;2.13;1.00;;;;;;;;;;5026792;28;20187;-74
2022/05/24 07:29:53;;;;;;;3.57;1.30;;;;;;;;;;5020687;28;20219;-73
2022/05/24 07:32:19;;;;;;;2.77;1.17;;;;;;;;;;5027288;28;20697;-74
2022/05/24 07:34:45;;;;;;;1.47;1.10;;;;;;;;;;5012300;28;20278;-74
2022/05/24 07:37:16;;;;;;;1.43;1.10;;;;;;;;;;5022590;28;20214;-74
2022/05/24 07:39:43;;;;;;;1.53;1.20;;;;;;;;;;5032103;28;20280;-74
2022/05/24 07:47:20;;;;;;;2.57;1.37;;;;;;;;;;5024063;28;20187;-73
2022/05/24 07:49:46;;;;;;;1.50;1.30;;;;;;;;;;5022199;28;20668;-74
2022/05/24 07:52:12;;;;;;;1.67;1.30;;;;;;;;;;5014753;28;20183;-74
2022/05/24 07:54:39;;;;;;;2.43;1.20;;;;;;;;;;5023510;28;20273;-74
2022/05/24 07:57:08;;;;;;;1.53;1.17;;;;;;;;;;5027362;28;20210;-74
2022/05/24 07:59:35;;;;;;;1.93;1.00;;;;;;;;;;5026492;28;20203;-73
2022/05/24 08:02:01;;;;;;;2.90;1.40;;;;;;;;;;5014010;28;20841;-73
2022/05/24 08:04:27;;;;;;;1.20;1.00;;;;;;;;;;5007558;28;20238;-73
2022/05/24 08:06:55;;;;;;;2.10;1.20;;;;;;;;;;5015543;28;20244;-73
2022/05/24 08:09:22;;;;;;;1.73;1.23;;;;;;;;;;5026751;28;20209;-74
2022/05/24 08:11:48;;;;;;;1.30;1.10;;;;;;;;;;5026346;28;20659;-73
2022/05/24 08:14:14;;;;;;;3.70;1.20;;;;;;;;;;5027898;28;20272;-73
2022/05/24 08:16:40;;;;;;;1.23;0.80;;;;;;;;;;5027969;28;20210;-74
2022/05/24 08:19:08;;;;;;;6.13;1.00;;;;;;;;;;5026977;28;20210;-73
2022/05/24 08:21:34;;;;;;;1.37;0.87;;;;;;;;;;5017370;28;20222;-74
2022/05/24 08:24:01;;;;;;;1.37;1.00;;;;;;;;;;5022729;28;20193;-73
2022/05/24 08:26:27;;;;;;;1.50;1.00;;;;;;;;;;5027815;28;20175;-73
2022/05/24 08:28:55;;;;;;;1.10;0.87;;;;;;;;;;5025459;28;20329;-73
2022/05/24 08:31:22;;;;;;;1.63;1.00;;;;;;;;;;5026645;28;20236;-74
2022/05/24 08:33:50;;;;;;;2.20;0.90;;;;;;;;;;5027247;28;20191;-73
2022/05/24 08:36:16;;;;;;;2.33;1.13;;;;;;;;;;5036199;28;20221;-73
2022/05/24 08:38:49;;;;;;;2.40;1.10;;;;;;;;;;5028496;28;20218;-73
2022/05/24 08:41:18;;;;;;;2.83;1.10;;;;;;;;;;5027430;28;20206;-73
2022/05/24 08:43:48;;;;;;;1.47;1.07;;;;;;;;;;5013070;28;20190;-73
2022/05/24 08:49:15;;;;;;;1.20;1.10;;;;;;;;;;5004439;28;20788;-73
2022/05/24 08:51:55;;;;;;;1.47;1.00;;;;;;;;;;5009129;28;20190;-73
2022/05/24 08:54:27;;;;;;;2.57;1.10;;;;;;;;;;5027319;28;20232;-73
2022/05/24 08:56:57;;;;;;;1.77;1.00;;;;;;;;;;5026939;28;20232;-74
2022/05/24 08:59:28;;;;;;;1.27;0.90;;;;;;;;;;5018116;28;20766;-73
2022/05/24 09:01:56;;;;;;;1.83;1.03;;;;;;;;;;5012228;28;20198;-73
2022/05/24 09:04:22;;;;;;;1.93;1.20;;;;;;;;;;5023944;28;20666;-73
2022/05/24 09:07:07;;;;;;;1.67;0.90;;;;;;;;;;5025891;28;20183;-73
2022/05/24 09:09:46;;;;;;;1.27;0.97;;;;;;;;;;5025860;28;20237;-73
2022/05/24 09:12:16;;;;;;;1.00;0.90;;;;;;;;;;5045690;28;20188;-75
2022/05/24 09:14:49;;;;;;;3.43;1.00;;;;;;;;;;5047935;28;20179;-73
2022/05/24 09:17:27;;;;;;;1.77;1.00;;;;;;;;;;5030456;28;20304;-73
2022/05/24 09:19:54;;;;;;;3.33;0.90;;;;;;;;;;5029815;28;20255;-73
2022/05/24 09:22:22;;;;;;;2.93;0.73;;;;;;;;;;5030443;28;20213;-73
2022/05/24 09:24:53;;;;;;;3.33;0.70;;;;;;;;;;5031036;28;20212;-73
2022/05/24 09:27:21;;;;;;;1.90;0.60;;;;;;;;;;5029771;28;20178;-73
2022/05/24 09:29:55;;;;;;;2.53;0.60;;;;;;;;;;5029685;28;20217;-73
2022/05/24 09:32:44;;;;;;;2.00;0.70;;;;;;;;;;5030248;28;20283;-73
2022/05/24 09:35:16;;;;;;;2.50;0.70;;;;;;;;;;5030149;28;20197;-73
2022/05/24 09:37:44;;;;;;;3.47;0.87;;;;;;;;;;5029093;28;20240;-73
2022/05/24 09:40:18;;;;;;;0.87;0.80;;;;;;;;;;5032118;28;20693;-73
2022/05/24 09:42:45;;;;;;;3.73;0.73;;;;;;;;;;5034686;28;20528;-74
2022/05/24 09:45:20;;;;;;;2.80;1.07;;;;;;;;;;5010509;28;20183;-74
2022/05/24 09:47:49;;;;;;;2.73;1.00;;;;;;;;;;5012284;28;20186;-73
2022/05/24 09:50:19;;;;;;;2.87;1.00;;;;;;;;;;5009496;28;20213;-73
2022/05/24 09:53:08;;;;;;;1.97;1.00;;;;;;;;;;5010303;28;20181;-73
2022/05/24 09:55:36;;;;;;;1.80;0.80;;;;;;;;;;5010291;28;20223;-73
2022/05/24 09:58:18;;;;;;;3.47;0.90;;;;;;;;;;5047354;28;20562;-74
2022/05/24 10:01:03;;;;;;;2.40;0.80;;;;;;;;;;5031104;28;20284;-73
2022/05/24 10:03:29;;;;;;;1.20;0.80;;;;;;;;;;5018612;28;20689;-73
2022/05/24 10:06:07;;;;;;;3.13;1.00;;;;;;;;;;5029973;28;20187;-73
2022/05/24 10:08:43;;;;;;;3.93;1.00;;;;;;;;;;5029410;28;20167;-73
2022/05/24 10:11:14;;;;;;;0.83;0.80;;;;;;;;;;5029861;28;20174;-73
2022/05/24 10:13:50;;;;;;;5.57;0.80;;;;;;;;;;5029475;28;20193;-73
2022/05/24 10:16:35;;;;;;;2.57;1.00;;;;;;;;;;5022680;28;20285;-73
2022/05/24 10:19:08;;;;;;;1.20;0.80;;;;;;;;;;5024745;28;20194;-73
2022/05/24 10:21:41;;;;;;;2.97;0.90;;;;;;;;;;5027177;28;20209;-73
2022/05/24 10:24:26;;;;;;;0.90;0.83;;;;;;;;;;5019537;28;20182;-73
2022/05/24 10:26:56;;;;;;;1.57;1.00;;;;;;;;;;5018656;28;20214;-72
2022/05/24 10:29:34;;;;;;;2.40;1.00;;;;;;;;;;5019930;28;20274;-74
2022/05/24 10:38:20;;;;;;;4.07;0.90;;;;;;;;;;5025459;28;20206;-73
2022/05/24 10:40:52;;;;;;;2.10;1.10;;;;;;;;;;5024164;28;20191;-74
2022/05/24 10:43:26;;;;;;;2.90;1.00;;;;;;;;;;5026714;28;20197;-73
2022/05/24 10:46:00;;;;;;;1.20;0.90;;;;;;;;;;5024259;28;20190;-74
2022/05/24 10:48:34;;;;;;;2.57;0.90;;;;;;;;;;5017964;28;20182;-75
2022/05/24 10:51:27;;;;;;;0.90;0.80;;;;;;;;;;5014699;28;20272;-74
2022/05/24 10:54:02;;;;;;;2.13;0.70;;;;;;;;;;5019553;28;20190;-75
2022/05/24 10:56:31;;;;;;;0.93;0.80;;;;;;;;;;5019552;28;20213;-74
2022/05/24 10:59:04;;;;;;;2.20;1.00;;;;;;;;;;5018713;28;20213;-75
2022/05/24 11:01:35;;;;;;;0.93;0.70;;;;;;;;;;5019883;28;20251;-74
2022/05/24 11:04:11;;;;;;;1.63;0.80;;;;;;;;;;5018064;28;20197;-77
2022/05/24 11:06:40;;;;;;;2.30;0.90;;;;;;;;;;5025318;28;20249;-76
2022/05/24 11:09:09;;;;;;;3.30;0.90;;;;;;;;;;5017613;28;20206;-78
2022/05/24 11:11:57;;;;;;;1.13;1.00;;;;;;;;;;5014960;28;20675;-77
2022/05/24 11:14:23;;;;;;;1.43;0.90;;;;;;;;;;5028688;28;20281;-76
2022/05/24 11:16:50;;;;;;;1.43;0.80;;;;;;;;;;5029027;28;20625;-76
2022/05/24 11:19:18;;;;;;;1.03;0.80;;;;;;;;;;5027598;28;20205;-75
2022/05/24 11:22:03;;;;;;;2.70;1.13;;;;;;;;;;5025127;28;20186;-75
2022/05/24 11:24:44;;;;;;;1.83;1.00;;;;;;;;;;5021387;28;20178;-75
2022/05/24 11:27:14;;;;;;;1.23;0.80;;;;;;;;;;5008873;28;20691;-75
2022/05/24 11:29:47;;;;;;;2.10;0.90;;;;;;;;;;5013435;28;20230;-82
2022/05/24 11:32:17;;;;;;;2.70;0.80;;;;;;;;;;5029914;28;20185;-81
2022/05/24 11:35:05;;;;;;;2.80;1.00;;;;;;;;;;5030381;28;20248;-83
2022/05/24 11:37:33;;;;;;;3.47;1.00;;;;;;;;;;5021604;28;20577;-81
2022/05/24 11:40:18;;;;;;;1.40;0.70;;;;;;;;;;5021441;28;20230;-80
2022/05/24 11:42:47;;;;;;;1.47;0.90;;;;;;;;;;5023132;28;20186;-83
2022/05/24 11:45:28;;;;;;;0.73;0.63;;;;;;;;;;5028477;28;20186;-83
2022/05/24 11:47:54;;;;;;;0.60;0.60;;;;;;;;;;5028474;28;20619;-83
2022/05/24 11:50:36;;;;;;;1.20;0.70;;;;;;;;;;5033623;28;20216;-83
2022/05/24 11:53:05;;;;;;;1.73;0.80;;;;;;;;;;5031128;28;20223;-83
2022/05/24 11:55:38;;;;;;;2.70;0.90;;;;;;;;;;5025076;28;20975;-83
2022/05/24 11:58:19;;;;;;;1.20;0.80;;;;;;;;;;5026102;28;20188;-81
2022/05/24 12:01:15;;;;;;;1.00;0.70;;;;;;;;;;5024867;28;20196;-81
2022/05/24 12:10:03;;;;;;;3.50;0.70;;;;;;;;;;5007612;28;20579;-81
2022/05/24 12:12:37;;;;;;;1.00;0.60;;;;;;;;;;5025344;28;20197;-81
2022/05/24 12:15:12;;;;;;;1.40;0.90;;;;;;;;;;5031547;28;20184;-81
2022/05/24 12:17:39;;;;;;;0.97;0.73;;;;;;;;;;5032152;28;20215;-81
2022/05/24 12:20:25;;;;;;;1.37;0.60;;;;;;;;;;5028242;28;20230;-81
2022/05/24 12:23:07;;;;;;;1.00;0.70;;;;;;;;;;5018162;28;20281;-81
2022/05/24 12:25:52;;;;;;;3.90;0.63;;;;;;;;;;5027541;28;20214;-81
2022/05/24 12:28:27;;;;;;;2.17;0.67;;;;;;;;;;5019634;28;20252;-86
2022/05/24 12:30:54;;;;;;;0.90;0.60;;;;;;;;;;5006455;28;20198;-82
2022/05/24 12:33:20;;;;;;;2.03;0.80;;;;;;;;;;5024259;28;20556;-83
2022/05/24 12:35:50;;;;;;;1.17;0.70;;;;;;;;;;5029324;28;20685;-81
2022/05/24 12:38:18;;;;;;;0.97;0.80;;;;;;;;;;5019853;28;20205;-86
2022/05/24 12:40:44;;;;;;;1.90;0.60;;;;;;;;;;5036653;28;20191;-84
2022/05/24 12:43:22;;;;;;;1.07;0.60;;;;;;;;;;5025993;28;20229;-76
2022/05/24 12:45:49;;;;;;;0.83;0.70;;;;;;;;;;5024641;28;20201;-75
2022/05/24 12:48:18;;;;;;;0.83;0.70;;;;;;;;;;5028844;28;20190;-74
2022/05/24 12:50:44;;;;;;;1.27;0.70;;;;;;;;;;5017376;28;20222;-75
2022/05/24 12:53:12;;;;;;;2.23;0.90;;;;;;;;;;5028484;28;20190;-74
2022/05/24 12:55:55;;;;;;;1.60;0.80;;;;;;;;;;5031345;28;20215;-75
2022/05/24 12:58:24;;;;;;;2.43;0.80;;;;;;;;;;5028598;28;20179;-74
2022/05/24 13:00:50;;;;;;;1.37;0.93;;;;;;;;;;5023967;28;20769;-74
2022/05/24 13:03:23;;;;;;;2.97;0.90;;;;;;;;;;5025009;28;20174;-74
2022/05/24 13:06:04;;;;;;;2.97;0.80;;;;;;;;;;5024087;28;20198;-76
2022/05/24 13:08:30;;;;;;;1.43;0.70;;;;;;;;;;5026497;28;20583;-76
2022/05/24 13:10:57;;;;;;;1.33;0.80;;;;;;;;;;5025543;28;20179;-76
2022/05/24 13:13:23;;;;;;;2.93;0.87;;;;;;;;;;5029422;28;20658;-77
2022/05/24 13:15:51;;;;;;;1.73;0.90;;;;;;;;;;5021367;28;20210;-75
2022/05/24 13:18:19;;;;;;;1.03;0.80;;;;;;;;;;5024445;28;20642;-73
2022/05/24 13:20:47;;;;;;;1.77;0.80;;;;;;;;;;5022073;28;20685;-76
2022/05/24 13:23:13;;;;;;;3.03;0.80;;;;;;;;;;5021569;28;20720;-73
2022/05/24 13:25:44;;;;;;;2.13;0.77;;;;;;;;;;5025161;28;20214;-73
2022/05/24 13:28:11;;;;;;;1.20;0.70;;;;;;;;;;5025657;28;20318;-73
2022/05/24 13:33:35;;;;;;;1.43;0.80;;;;;;;;;;5024535;28;20209;-72
2022/05/24 13:36:15;;;;;;;1.33;0.80;;;;;;;;;;5008758;28;20319;-73
2022/05/24 13:38:42;;;;;;;1.23;0.80;;;;;;;;;;5038020;28;20387;-73
2022/05/24 13:41:09;;;;;;;1.13;0.70;;;;;;;;;;5028235;28;20218;-72
2022/05/24 13:43:35;;;;;;;1.20;0.77;;;;;;;;;;5044014;28;20182;-73
2022/05/24 13:46:21;;;;;;;1.87;0.90;;;;;;;;;;5052587;28;20209;-73
2022/05/24 13:49:00;;;;;;;1.37;0.80;;;;;;;;;;5013594;28;20573;-74
2022/05/24 13:51:35;;;;;;;1.27;0.80;;;;;;;;;;5010256;28;20203;-74
2022/05/24 13:54:02;;;;;;;1.67;0.80;;;;;;;;;;5009981;28;20602;-72
2022/05/24 13:56:31;;;;;;;0.93;0.80;;;;;;;;;;5025446;28;20215;-72
2022/05/24 13:59:08;;;;;;;1.57;0.73;;;;;;;;;;5017773;28;20203;-72
2022/05/24 14:01:39;;;;;;;1.00;0.60;;;;;;;;;;5037206;28;20186;-72
2022/05/24 14:04:17;;;;;;;1.90;0.70;;;;;;;;;;5034612;28;20186;-72
2022/05/24 14:06:48;;;;;;;1.00;0.73;;;;;;;;;;5026346;28;20193;-71
2022/05/24 14:09:14;;;;;;;0.60;0.60;;;;;;;;;;5021284;28;20213;-72
2022/05/24 14:11:52;;;;;;;0.90;0.70;;;;;;;;;;5025971;28;20293;-72
2022/05/24 14:14:18;;;;;;;1.07;0.70;;;;;;;;;;5021707;28;20672;-72
2022/05/24 14:16:45;;;;;;;1.50;0.73;;;;;;;;;;5028235;28;20944;-72
2022/05/24 14:19:12;;;;;;;1.60;0.80;;;;;;;;;;5032475;28;20202;-72
2022/05/24 14:21:40;;;;;;;1.40;0.70;;;;;;;;;;5022953;28;20182;-72
2022/05/24 14:24:13;;;;;;;2.67;0.77;;;;;;;;;;5024821;28;20191;-72
2022/05/24 14:26:40;;;;;;;0.93;0.77;;;;;;;;;;5028008;28;20176;-72
2022/05/24 14:29:07;;;;;;;1.70;0.77;;;;;;;;;;5024336;28;20206;-72
2022/05/24 14:31:33;;;;;;;2.43;0.60;;;;;;;;;;5025886;28;20233;-72
2022/05/24 14:34:00;;;;;;;0.80;0.63;;;;;;;;;;5033069;28;20201;-72
2022/05/24 14:36:26;;;;;;;1.90;0.90;;;;;;;;;;5013718;28;20703;-72
2022/05/24 14:38:53;;;;;;;1.07;0.60;;;;;;;;;;5012759;28;20563;-72
2022/05/24 14:41:22;;;;;;;1.03;0.63;;;;;;;;;;5016901;28;20223;-72
2022/05/24 14:43:50;;;;;;;0.63;0.53;;;;;;;;;;5005765;28;20237;-72
2022/05/24 14:46:17;;;;;;;1.03;0.73;;;;;;;;;;5020934;28;20187;-72
2022/05/24 14:48:43;;;;;;;1.27;0.80;;;;;;;;;;5027702;28;20198;-72
2022/05/24 14:51:10;;;;;;;0.70;0.60;;;;;;;;;;5028296;28;20180;-72
2022/05/24 14:53:38;;;;;;;1.23;0.70;;;;;;;;;;5028648;28;20186;-72
2022/05/24 14:56:04;;;;;;;0.57;0.57;;;;;;;;;;5028486;28;20218;-72
2022/05/24 14:58:31;;;;;;;1.87;0.80;;;;;;;;;;5027832;28;20562;-70
2022/05/24 15:00:57;;;;;;;2.27;1.00;;;;;;;;;;5028105;28;20198;-71
2022/05/24 15:03:24;;;;;;;1.10;0.80;;;;;;;;;;5028773;28;20367;-71
2022/05/24 15:05:50;;;;;;;1.17;0.60;;;;;;;;;;5026126;28;20190;-71
2022/05/24 15:16:32;;;;;;;1.00;0.60;;;;;;;;;;5022940;28;20215;-71
2022/05/24 15:18:58;;;;;;;1.37;0.70;;;;;;;;;;5028090;28;20210;-71
2022/05/24 15:21:27;;;;;;;1.30;0.70;;;;;;;;;;5017755;28;20186;-73
2022/05/24 15:23:56;;;;;;;0.57;0.57;;;;;;;;;;5026826;28;20236;-73
2022/05/24 15:26:29;;;;;;;1.50;0.70;;;;;;;;;;5028633;28;20263;-73
2022/05/24 15:28:55;;;;;;;1.00;0.70;;;;;;;;;;5026985;28;20248;-73
2022/05/24 15:31:22;;;;;;;3.67;0.73;;;;;;;;;;5027465;28;20188;-73
2022/05/24 15:33:48;;;;;;;0.97;0.80;;;;;;;;;;5028228;28;20182;-73
2022/05/24 15:36:15;;;;;;;1.30;0.70;;;;;;;;;;5026255;28;20213;-73
2022/05/24 15:38:41;;;;;;;1.20;0.70;;;;;;;;;;5027526;28;20210;-72
2022/05/24 15:41:08;;;;;;;2.90;0.77;;;;;;;;;;5014266;28;20206;-75
2022/05/24 15:43:43;;;;;;;1.50;0.70;;;;;;;;;;5019132;28;20237;-75
2022/05/24 15:46:10;;;;;;;0.80;0.70;;;;;;;;;;5019495;28;20187;-75
2022/05/24 15:48:36;;;;;;;2.03;0.80;;;;;;;;;;5024816;28;20238;-76
2022/05/24 15:51:03;;;;;;;0.70;0.70;;;;;;;;;;5025525;28;20186;-75
2022/05/24 15:53:31;;;;;;;2.17;0.80;;;;;;;;;;5023346;28;20221;-75